sensor_id;sensor_type;location;lat;lon;timestamp;P1;P2;P0
73973;PMS5003;62336;-26.094;27.994;2023-03-19T00:00:26;27;26;
73973;PMS5003;62336;-26.094;27.994;2023-03-19T00:02:51;24;24;
73973;PMS5003;62336;-26.094;27.994;2023-03-19T00:05:17;20;20;
73973;PMS5003;62336;-26.094;27.994;2023-03-19T00:07:42;25;23;
73973;PMS5003;62336;-26.094;27.994;2023-03-19T00:10:07;22;21;
73973;PMS5003;62336;-26.094;27.994;2023-03-19T00:12:33;20;19;
73973;PMS5003;62336;-26.094;27.994;2023-03-19T00:14:58;24;22;
73973;PMS5003;62336;-26.094;27.994;2023-03-19T00:17:23;24;22;
73973;PMS5003;62336;-26.094;27.994;2023-03-19T00:19:49;25;23;
73973;PMS5003;62336;-26.094;27.994;2023-03-19T00:22:14;22;21;
73973;PMS5003;62336;-26.094;27.994;2023-03-19T00:24:40;22;22;
73973;PMS5003;62336;-26.094;27.994;2023-03-19T00:27:05;24;24;
73973;PMS5003;62336;-26.094;27.994;2023-03-19T00:29:31;23;23;
73973;PMS5003;62336;-26.094;27.994;2023-03-19T00:31:56;24;20;
73973;PMS5003;62336;-26.094;27.994;2023-03-19T00:34:21;20;19;
73973;PMS5003;62336;-26.094;27.994;2023-03-19T00:36:47;23;23;
73973;PMS5003;62336;-26.094;27.994;2023-03-19T00:39:11;21;21;
73973;PMS5003;62336;-26.094;27.994;2023-03-19T00:41:37;20;20;
73973;PMS5003;62336;-26.094;27.994;2023-03-19T00:44:03;21;21;
73973;PMS5003;62336;-26.094;27.994;2023-03-19T00:46:28;20;20;
73973;PMS5003;62336;-26.094;27.994;2023-03-19T00:48:54;22;22;
73973;PMS5003;62336;-26.094;27.994;2023-03-19T00:51:20;22;22;
73973;PMS5003;62336;-26.094;27.994;2023-03-19T00:53:45;23;22;
73973;PMS5003;62336;-26.094;27.994;2023-03-19T00:56:12;21;20;
73973;PMS5003;62336;-26.094;27.994;2023-03-19T00:58:37;22;22;
73973;PMS5003;62336;-26.094;27.994;2023-03-19T01:01:01;24;22;
73973;PMS5003;62336;-26.094;27.994;2023-03-19T01:03:27;22;22;
73973;PMS5003;62336;-26.094;27.994;2023-03-19T01:05:51;22;21;
73973;PMS5003;62336;-26.094;27.994;2023-03-19T01:08:16;24;22;
73973;PMS5003;62336;-26.094;27.994;2023-03-19T01:10:43;23;22;
73973;PMS5003;62336;-26.094;27.994;2023-03-19T01:13:07;20;20;
73973;PMS5003;62336;-26.094;27.994;2023-03-19T01:15:34;23;23;
73973;PMS5003;62336;-26.094;27.994;2023-03-19T01:17:58;18;18;
73973;PMS5003;62336;-26.094;27.994;2023-03-19T01:20:23;24;23;
73973;PMS5003;62336;-26.094;27.994;2023-03-19T01:22:48;22;21;
73973;PMS5003;62336;-26.094;27.994;2023-03-19T01:25:14;22;20;
73973;PMS5003;62336;-26.094;27.994;2023-03-19T01:27:39;18;17;
73973;PMS5003;62336;-26.094;27.994;2023-03-19T01:30:05;21;20;
73973;PMS5003;62336;-26.094;27.994;2023-03-19T01:32:29;22;19;
73973;PMS5003;62336;-26.094;27.994;2023-03-19T01:34:55;22;22;
73973;PMS5003;62336;-26.094;27.994;2023-03-19T01:37:20;20;20;
73973;PMS5003;62336;-26.094;27.994;2023-03-19T01:39:45;19;18;
73973;PMS5003;62336;-26.094;27.994;2023-03-19T01:42:11;22;22;
73973;PMS5003;62336;-26.094;27.994;2023-03-19T01:44:37;18;18;
73973;PMS5003;62336;-26.094;27.994;2023-03-19T01:47:03;18;17;
73973;PMS5003;62336;-26.094;27.994;2023-03-19T01:49:29;17;17;
73973;PMS5003;62336;-26.094;27.994;2023-03-19T01:51:54;17;17;
73973;PMS5003;62336;-26.094;27.994;2023-03-19T01:54:21;18;17;
73973;PMS5003;62336;-26.094;27.994;2023-03-19T01:56:44;17;17;
73973;PMS5003;62336;-26.094;27.994;2023-03-19T01:59:09;14;14;
73973;PMS5003;62336;-26.094;27.994;2023-03-19T02:01:35;15;15;
73973;PMS5003;62336;-26.094;27.994;2023-03-19T02:04:01;16;16;
73973;PMS5003;62336;-26.094;27.994;2023-03-19T02:06:26;18;17;
73973;PMS5003;62336;-26.094;27.994;2023-03-19T02:08:51;22;20;
73973;PMS5003;62336;-26.094;27.994;2023-03-19T02:11:16;16;15;
73973;PMS5003;62336;-26.094;27.994;2023-03-19T02:13:41;16;16;
73973;PMS5003;62336;-26.094;27.994;2023-03-19T02:16:07;14;14;
73973;PMS5003;62336;-26.094;27.994;2023-03-19T02:18:33;13;12;
73973;PMS5003;62336;-26.094;27.994;2023-03-19T02:20:58;15;15;
73973;PMS5003;62336;-26.094;27.994;2023-03-19T02:23:25;15;15;
73973;PMS5003;62336;-26.094;27.994;2023-03-19T02:25:53;15;14;
73973;PMS5003;62336;-26.094;27.994;2023-03-19T02:28:13;11;10;
73973;PMS5003;62336;-26.094;27.994;2023-03-19T02:30:38;14;14;
73973;PMS5003;62336;-26.094;27.994;2023-03-19T02:33:02;10;10;
73973;PMS5003;62336;-26.094;27.994;2023-03-19T02:35:29;12;11;
73973;PMS5003;62336;-26.094;27.994;2023-03-19T02:37:54;12;12;
73973;PMS5003;62336;-26.094;27.994;2023-03-19T02:40:21;11;10;
73973;PMS5003;62336;-26.094;27.994;2023-03-19T02:42:46;14;12;
73973;PMS5003;62336;-26.094;27.994;2023-03-19T02:45:10;10;10;
73973;PMS5003;62336;-26.094;27.994;2023-03-19T02:47:36;12;12;
73973;PMS5003;62336;-26.094;27.994;2023-03-19T02:50:02;11;11;
73973;PMS5003;62336;-26.094;27.994;2023-03-19T02:52:27;11;11;
73973;PMS5003;62336;-26.094;27.994;2023-03-19T02:54:51;11;11;
73973;PMS5003;62336;-26.094;27.994;2023-03-19T02:57:17;12;11;
73973;PMS5003;62336;-26.094;27.994;2023-03-19T02:59:43;11;10;
73973;PMS5003;62336;-26.094;27.994;2023-03-19T03:02:08;11;10;
73973;PMS5003;62336;-26.094;27.994;2023-03-19T03:04:32;10;10;
73973;PMS5003;62336;-26.094;27.994;2023-03-19T03:06:58;14;13;
73973;PMS5003;62336;-26.094;27.994;2023-03-19T03:09:22;11;11;
73973;PMS5003;62336;-26.094;27.994;2023-03-19T03:11:48;11;11;
73973;PMS5003;62336;-26.094;27.994;2023-03-19T03:14:14;11;11;
73973;PMS5003;62336;-26.094;27.994;2023-03-19T03:16:38;11;11;
73973;PMS5003;62336;-26.094;27.994;2023-03-19T03:19:04;10;10;
73973;PMS5003;62336;-26.094;27.994;2023-03-19T03:21:30;11;11;
73973;PMS5003;62336;-26.094;27.994;2023-03-19T03:23:56;11;11;
73973;PMS5003;62336;-26.094;27.994;2023-03-19T03:26:21;9;8;
73973;PMS5003;62336;-26.094;27.994;2023-03-19T03:28:48;12;11;
73973;PMS5003;62336;-26.094;27.994;2023-03-19T03:31:13;12;11;
73973;PMS5003;62336;-26.094;27.994;2023-03-19T03:33:39;13;13;
73973;PMS5003;62336;-26.094;27.994;2023-03-19T03:36:06;12;10;
73973;PMS5003;62336;-26.094;27.994;2023-03-19T03:38:30;11;11;
73973;PMS5003;62336;-26.094;27.994;2023-03-19T03:40:56;11;10;
73973;PMS5003;62336;-26.094;27.994;2023-03-19T03:43:21;9;9;
73973;PMS5003;62336;-26.094;27.994;2023-03-19T03:45:47;12;12;
73973;PMS5003;62336;-26.094;27.994;2023-03-19T03:48:13;12;11;
73973;PMS5003;62336;-26.094;27.994;2023-03-19T03:50:39;11;10;
73973;PMS5003;62336;-26.094;27.994;2023-03-19T03:53:04;9;9;
73973;PMS5003;62336;-26.094;27.994;2023-03-19T03:55:30;11;11;
73973;PMS5003;62336;-26.094;27.994;2023-03-19T03:57:56;12;11;
73973;PMS5003;62336;-26.094;27.994;2023-03-19T04:00:20;10;10;
73973;PMS5003;62336;-26.094;27.994;2023-03-19T04:02:46;13;12;
73973;PMS5003;62336;-26.094;27.994;2023-03-19T04:05:12;9;9;
73973;PMS5003;62336;-26.094;27.994;2023-03-19T04:07:36;11;10;
73973;PMS5003;62336;-26.094;27.994;2023-03-19T04:10:01;10;9;
73973;PMS5003;62336;-26.094;27.994;2023-03-19T04:12:27;10;10;
73973;PMS5003;62336;-26.094;27.994;2023-03-19T04:14:53;10;10;
73973;PMS5003;62336;-26.094;27.994;2023-03-19T04:17:19;7;7;
73973;PMS5003;62336;-26.094;27.994;2023-03-19T04:19:45;7;7;
73973;PMS5003;62336;-26.094;27.994;2023-03-19T04:22:10;14;13;
73973;PMS5003;62336;-26.094;27.994;2023-03-19T04:24:36;12;12;
73973;PMS5003;62336;-26.094;27.994;2023-03-19T04:27:01;10;10;
73973;PMS5003;62336;-26.094;27.994;2023-03-19T04:29:27;8;8;
73973;PMS5003;62336;-26.094;27.994;2023-03-19T04:31:53;13;11;
73973;PMS5003;62336;-26.094;27.994;2023-03-19T04:34:19;9;9;
73973;PMS5003;62336;-26.094;27.994;2023-03-19T04:36:45;10;10;
73973;PMS5003;62336;-26.094;27.994;2023-03-19T04:39:10;10;9;
73973;PMS5003;62336;-26.094;27.994;2023-03-19T04:41:36;9;9;
73973;PMS5003;62336;-26.094;27.994;2023-03-19T04:44:00;8;8;
73973;PMS5003;62336;-26.094;27.994;2023-03-19T04:46:25;8;8;
73973;PMS5003;62336;-26.094;27.994;2023-03-19T04:48:50;11;11;
73973;PMS5003;62336;-26.094;27.994;2023-03-19T04:51:16;11;11;
73973;PMS5003;62336;-26.094;27.994;2023-03-19T04:53:41;10;9;
73973;PMS5003;62336;-26.094;27.994;2023-03-19T04:56:06;10;10;
73973;PMS5003;62336;-26.094;27.994;2023-03-19T04:58:32;9;9;
73973;PMS5003;62336;-26.094;27.994;2023-03-19T05:00:57;9;8;
73973;PMS5003;62336;-26.094;27.994;2023-03-19T05:03:22;8;8;
73973;PMS5003;62336;-26.094;27.994;2023-03-19T05:05:47;10;9;
73973;PMS5003;62336;-26.094;27.994;2023-03-19T05:08:12;10;10;
73973;PMS5003;62336;-26.094;27.994;2023-03-19T05:10:38;10;10;
73973;PMS5003;62336;-26.094;27.994;2023-03-19T05:13:02;8;8;
73973;PMS5003;62336;-26.094;27.994;2023-03-19T05:15:27;9;9;
73973;PMS5003;62336;-26.094;27.994;2023-03-19T05:17:54;10;10;
73973;PMS5003;62336;-26.094;27.994;2023-03-19T05:20:19;8;8;
73973;PMS5003;62336;-26.094;27.994;2023-03-19T05:22:45;9;9;
73973;PMS5003;62336;-26.094;27.994;2023-03-19T05:25:11;16;14;
73973;PMS5003;62336;-26.094;27.994;2023-03-19T05:27:36;9;9;
73973;PMS5003;62336;-26.094;27.994;2023-03-19T05:30:01;8;7;
73973;PMS5003;62336;-26.094;27.994;2023-03-19T05:32:27;9;9;
73973;PMS5003;62336;-26.094;27.994;2023-03-19T05:34:52;9;9;
73973;PMS5003;62336;-26.094;27.994;2023-03-19T05:37:18;8;8;
73973;PMS5003;62336;-26.094;27.994;2023-03-19T05:39:44;11;10;
73973;PMS5003;62336;-26.094;27.994;2023-03-19T05:42:15;10;10;
73973;PMS5003;62336;-26.094;27.994;2023-03-19T05:44:34;12;12;
73973;PMS5003;62336;-26.094;27.994;2023-03-19T05:47:01;12;11;
73973;PMS5003;62336;-26.094;27.994;2023-03-19T05:49:25;15;14;
73973;PMS5003;62336;-26.094;27.994;2023-03-19T05:51:51;14;13;
73973;PMS5003;62336;-26.094;27.994;2023-03-19T05:54:17;12;12;
73973;PMS5003;62336;-26.094;27.994;2023-03-19T05:56:43;15;14;
73973;PMS5003;62336;-26.094;27.994;2023-03-19T05:59:07;20;19;
73973;PMS5003;62336;-26.094;27.994;2023-03-19T06:01:32;20;19;
73973;PMS5003;62336;-26.094;27.994;2023-03-19T06:03:57;31;31;
73973;PMS5003;62336;-26.094;27.994;2023-03-19T06:06:22;38;36;
73973;PMS5003;62336;-26.094;27.994;2023-03-19T06:08:48;41;39;
73973;PMS5003;62336;-26.094;27.994;2023-03-19T06:11:13;44;43;
73973;PMS5003;62336;-26.094;27.994;2023-03-19T06:13:38;50;43;
73973;PMS5003;62336;-26.094;27.994;2023-03-19T06:16:06;51;49;
73973;PMS5003;62336;-26.094;27.994;2023-03-19T06:18:29;58;55;
73973;PMS5003;62336;-26.094;27.994;2023-03-19T06:20:54;55;52;
73973;PMS5003;62336;-26.094;27.994;2023-03-19T06:23:20;52;49;
73973;PMS5003;62336;-26.094;27.994;2023-03-19T06:25:45;51;49;
73973;PMS5003;62336;-26.094;27.994;2023-03-19T06:28:11;48;47;
73973;PMS5003;62336;-26.094;27.994;2023-03-19T06:30:36;50;47;
73973;PMS5003;62336;-26.094;27.994;2023-03-19T06:33:01;47;44;
73973;PMS5003;62336;-26.094;27.994;2023-03-19T06:35:26;46;45;
73973;PMS5003;62336;-26.094;27.994;2023-03-19T06:37:52;36;31;
73973;PMS5003;62336;-26.094;27.994;2023-03-19T06:40:17;36;34;
73973;PMS5003;62336;-26.094;27.994;2023-03-19T06:42:44;30;29;
73973;PMS5003;62336;-26.094;27.994;2023-03-19T06:45:08;30;29;
73973;PMS5003;62336;-26.094;27.994;2023-03-19T06:47:33;35;31;
73973;PMS5003;62336;-26.094;27.994;2023-03-19T06:49:58;30;29;
73973;PMS5003;62336;-26.094;27.994;2023-03-19T06:52:24;29;27;
73973;PMS5003;62336;-26.094;27.994;2023-03-19T06:54:49;29;26;
73973;PMS5003;62336;-26.094;27.994;2023-03-19T06:57:15;20;19;
73973;PMS5003;62336;-26.094;27.994;2023-03-19T06:59:40;23;23;
73973;PMS5003;62336;-26.094;27.994;2023-03-19T07:02:05;19;18;
73973;PMS5003;62336;-26.094;27.994;2023-03-19T07:04:31;15;15;
73973;PMS5003;62336;-26.094;27.994;2023-03-19T07:06:56;14;14;
73973;PMS5003;62336;-26.094;27.994;2023-03-19T07:09:20;14;13;
73973;PMS5003;62336;-26.094;27.994;2023-03-19T07:11:47;16;15;
73973;PMS5003;62336;-26.094;27.994;2023-03-19T07:14:11;12;12;
73973;PMS5003;62336;-26.094;27.994;2023-03-19T07:16:36;12;12;
73973;PMS5003;62336;-26.094;27.994;2023-03-19T07:19:01;11;10;
73973;PMS5003;62336;-26.094;27.994;2023-03-19T07:21:26;13;12;
73973;PMS5003;62336;-26.094;27.994;2023-03-19T07:23:51;12;12;
73973;PMS5003;62336;-26.094;27.994;2023-03-19T07:26:16;11;11;
73973;PMS5003;62336;-26.094;27.994;2023-03-19T07:28:42;12;12;
73973;PMS5003;62336;-26.094;27.994;2023-03-19T07:31:06;12;12;
73973;PMS5003;62336;-26.094;27.994;2023-03-19T07:33:31;11;10;
73973;PMS5003;62336;-26.094;27.994;2023-03-19T07:35:57;12;12;
73973;PMS5003;62336;-26.094;27.994;2023-03-19T07:38:22;10;9;
73973;PMS5003;62336;-26.094;27.994;2023-03-19T07:40:49;12;12;
73973;PMS5003;62336;-26.094;27.994;2023-03-19T07:43:13;11;11;
73973;PMS5003;62336;-26.094;27.994;2023-03-19T07:45:37;10;10;
73973;PMS5003;62336;-26.094;27.994;2023-03-19T07:48:03;10;10;
73973;PMS5003;62336;-26.094;27.994;2023-03-19T07:50:28;13;12;
73973;PMS5003;62336;-26.094;27.994;2023-03-19T07:52:53;12;11;
73973;PMS5003;62336;-26.094;27.994;2023-03-19T07:55:19;8;8;
73973;PMS5003;62336;-26.094;27.994;2023-03-19T07:57:44;11;11;
73973;PMS5003;62336;-26.094;27.994;2023-03-19T08:00:09;13;12;
73973;PMS5003;62336;-26.094;27.994;2023-03-19T08:02:34;11;11;
73973;PMS5003;62336;-26.094;27.994;2023-03-19T08:04:59;12;11;
73973;PMS5003;62336;-26.094;27.994;2023-03-19T08:07:24;9;9;
73973;PMS5003;62336;-26.094;27.994;2023-03-19T08:09:49;11;9;
73973;PMS5003;62336;-26.094;27.994;2023-03-19T08:12:14;10;10;
73973;PMS5003;62336;-26.094;27.994;2023-03-19T08:14:39;13;12;
73973;PMS5003;62336;-26.094;27.994;2023-03-19T08:17:04;11;10;
73973;PMS5003;62336;-26.094;27.994;2023-03-19T08:19:29;11;10;
73973;PMS5003;62336;-26.094;27.994;2023-03-19T08:21:54;10;10;
73973;PMS5003;62336;-26.094;27.994;2023-03-19T08:24:20;13;11;
73973;PMS5003;62336;-26.094;27.994;2023-03-19T08:26:45;11;11;
73973;PMS5003;62336;-26.094;27.994;2023-03-19T08:29:10;12;12;
73973;PMS5003;62336;-26.094;27.994;2023-03-19T08:31:35;11;11;
73973;PMS5003;62336;-26.094;27.994;2023-03-19T08:34:01;10;10;
73973;PMS5003;62336;-26.094;27.994;2023-03-19T08:36:26;10;10;
73973;PMS5003;62336;-26.094;27.994;2023-03-19T08:38:51;10;10;
73973;PMS5003;62336;-26.094;27.994;2023-03-19T08:41:16;9;9;
73973;PMS5003;62336;-26.094;27.994;2023-03-19T08:43:41;11;10;
73973;PMS5003;62336;-26.094;27.994;2023-03-19T08:46:06;8;8;
73973;PMS5003;62336;-26.094;27.994;2023-03-19T08:48:33;10;9;
73973;PMS5003;62336;-26.094;27.994;2023-03-19T08:50:58;12;10;
73973;PMS5003;62336;-26.094;27.994;2023-03-19T08:53:25;11;11;
73973;PMS5003;62336;-26.094;27.994;2023-03-19T08:55:51;10;9;
73973;PMS5003;62336;-26.094;27.994;2023-03-19T08:58:14;11;11;
73973;PMS5003;62336;-26.094;27.994;2023-03-19T09:00:39;11;11;
73973;PMS5003;62336;-26.094;27.994;2023-03-19T09:03:05;13;11;
73973;PMS5003;62336;-26.094;27.994;2023-03-19T09:05:29;11;11;
73973;PMS5003;62336;-26.094;27.994;2023-03-19T09:07:54;14;11;
73973;PMS5003;62336;-26.094;27.994;2023-03-19T09:10:19;11;10;
73973;PMS5003;62336;-26.094;27.994;2023-03-19T09:12:45;12;12;
73973;PMS5003;62336;-26.094;27.994;2023-03-19T09:15:09;11;11;
73973;PMS5003;62336;-26.094;27.994;2023-03-19T09:17:34;11;11;
73973;PMS5003;62336;-26.094;27.994;2023-03-19T09:19:59;9;9;
73973;PMS5003;62336;-26.094;27.994;2023-03-19T09:22:25;12;12;
73973;PMS5003;62336;-26.094;27.994;2023-03-19T09:24:49;11;11;
73973;PMS5003;62336;-26.094;27.994;2023-03-19T09:27:15;12;11;
73973;PMS5003;62336;-26.094;27.994;2023-03-19T09:29:40;14;11;
73973;PMS5003;62336;-26.094;27.994;2023-03-19T09:32:05;12;11;
73973;PMS5003;62336;-26.094;27.994;2023-03-19T09:34:30;10;10;
73973;PMS5003;62336;-26.094;27.994;2023-03-19T09:36:55;9;9;
73973;PMS5003;62336;-26.094;27.994;2023-03-19T09:39:21;12;12;
73973;PMS5003;62336;-26.094;27.994;2023-03-19T09:41:51;8;8;
73973;PMS5003;62336;-26.094;27.994;2023-03-19T09:44:11;9;9;
73973;PMS5003;62336;-26.094;27.994;2023-03-19T09:46:37;9;9;
73973;PMS5003;62336;-26.094;27.994;2023-03-19T09:49:02;11;10;
73973;PMS5003;62336;-26.094;27.994;2023-03-19T09:51:27;15;13;
73973;PMS5003;62336;-26.094;27.994;2023-03-19T09:53:52;11;10;
73973;PMS5003;62336;-26.094;27.994;2023-03-19T09:56:16;12;12;
73973;PMS5003;62336;-26.094;27.994;2023-03-19T09:58:41;11;11;
73973;PMS5003;62336;-26.094;27.994;2023-03-19T10:01:10;8;8;
73973;PMS5003;62336;-26.094;27.994;2023-03-19T10:03:40;10;9;
73973;PMS5003;62336;-26.094;27.994;2023-03-19T10:05:58;10;9;
73973;PMS5003;62336;-26.094;27.994;2023-03-19T10:08:26;9;9;
73973;PMS5003;62336;-26.094;27.994;2023-03-19T10:10:56;9;9;
73973;PMS5003;62336;-26.094;27.994;2023-03-19T10:13:14;10;10;
73973;PMS5003;62336;-26.094;27.994;2023-03-19T10:15:37;8;8;
73973;PMS5003;62336;-26.094;27.994;2023-03-19T10:18:03;10;9;
73973;PMS5003;62336;-26.094;27.994;2023-03-19T10:20:29;10;9;
73973;PMS5003;62336;-26.094;27.994;2023-03-19T10:22:53;12;12;
73973;PMS5003;62336;-26.094;27.994;2023-03-19T10:25:19;8;8;
73973;PMS5003;62336;-26.094;27.994;2023-03-19T10:27:43;11;11;
73973;PMS5003;62336;-26.094;27.994;2023-03-19T10:30:12;10;10;
73973;PMS5003;62336;-26.094;27.994;2023-03-19T10:32:34;11;11;
73973;PMS5003;62336;-26.094;27.994;2023-03-19T10:34:58;10;10;
73973;PMS5003;62336;-26.094;27.994;2023-03-19T10:37:23;12;12;
73973;PMS5003;62336;-26.094;27.994;2023-03-19T10:39:48;9;9;
73973;PMS5003;62336;-26.094;27.994;2023-03-19T10:42:19;9;9;
73973;PMS5003;62336;-26.094;27.994;2023-03-19T10:44:41;12;9;
73973;PMS5003;62336;-26.094;27.994;2023-03-19T10:47:09;11;11;
73973;PMS5003;62336;-26.094;27.994;2023-03-19T10:49:28;10;10;
73973;PMS5003;62336;-26.094;27.994;2023-03-19T10:51:55;11;10;
73973;PMS5003;62336;-26.094;27.994;2023-03-19T10:54:20;11;9;
73973;PMS5003;62336;-26.094;27.994;2023-03-19T10:56:45;10;10;
73973;PMS5003;62336;-26.094;27.994;2023-03-19T10:59:18;8;8;
73973;PMS5003;62336;-26.094;27.994;2023-03-19T11:01:34;7;7;
73973;PMS5003;62336;-26.094;27.994;2023-03-19T11:03:59;9;9;
73973;PMS5003;62336;-26.094;27.994;2023-03-19T11:06:25;7;7;
73973;PMS5003;62336;-26.094;27.994;2023-03-19T11:08:51;10;9;
73973;PMS5003;62336;-26.094;27.994;2023-03-19T11:13:41;11;11;
73973;PMS5003;62336;-26.094;27.994;2023-03-19T11:16:05;8;7;
73973;PMS5003;62336;-26.094;27.994;2023-03-19T11:18:35;8;8;
73973;PMS5003;62336;-26.094;27.994;2023-03-19T11:20:57;10;9;
73973;PMS5003;62336;-26.094;27.994;2023-03-19T11:23:20;9;8;
73973;PMS5003;62336;-26.094;27.994;2023-03-19T11:25:46;8;8;
73973;PMS5003;62336;-26.094;27.994;2023-03-19T11:28:11;11;10;
73973;PMS5003;62336;-26.094;27.994;2023-03-19T11:30:37;8;8;
73973;PMS5003;62336;-26.094;27.994;2023-03-19T11:33:04;7;7;
73973;PMS5003;62336;-26.094;27.994;2023-03-19T11:35:27;9;8;
73973;PMS5003;62336;-26.094;27.994;2023-03-19T11:37:53;9;9;
73973;PMS5003;62336;-26.094;27.994;2023-03-19T11:40:19;10;10;
73973;PMS5003;62336;-26.094;27.994;2023-03-19T11:42:49;9;9;
73973;PMS5003;62336;-26.094;27.994;2023-03-19T11:45:10;10;9;
73973;PMS5003;62336;-26.094;27.994;2023-03-19T11:47:33;9;9;
73973;PMS5003;62336;-26.094;27.994;2023-03-19T11:50:02;10;10;
73973;PMS5003;62336;-26.094;27.994;2023-03-19T11:52:24;6;5;
73973;PMS5003;62336;-26.094;27.994;2023-03-19T11:54:51;7;7;
73973;PMS5003;62336;-26.094;27.994;2023-03-19T11:57:15;7;7;
73973;PMS5003;62336;-26.094;27.994;2023-03-19T11:59:41;8;8;
73973;PMS5003;62336;-26.094;27.994;2023-03-19T12:04:32;7;7;
73973;PMS5003;62336;-26.094;27.994;2023-03-19T12:06:55;8;7;
73973;PMS5003;62336;-26.094;27.994;2023-03-19T12:09:21;7;7;
73973;PMS5003;62336;-26.094;27.994;2023-03-19T12:11:45;8;8;
73973;PMS5003;62336;-26.094;27.994;2023-03-19T12:14:12;8;8;
73973;PMS5003;62336;-26.094;27.994;2023-03-19T12:16:37;7;7;
73973;PMS5003;62336;-26.094;27.994;2023-03-19T12:19:07;6;6;
73973;PMS5003;62336;-26.094;27.994;2023-03-19T12:21:26;7;7;
73973;PMS5003;62336;-26.094;27.994;2023-03-19T12:23:53;9;8;
73973;PMS5003;62336;-26.094;27.994;2023-03-19T12:26:16;9;9;
73973;PMS5003;62336;-26.094;27.994;2023-03-19T12:28:40;6;6;
73973;PMS5003;62336;-26.094;27.994;2023-03-19T12:31:10;7;7;
73973;PMS5003;62336;-26.094;27.994;2023-03-19T12:33:32;11;8;
73973;PMS5003;62336;-26.094;27.994;2023-03-19T12:35:55;10;10;
73973;PMS5003;62336;-26.094;27.994;2023-03-19T12:38:21;8;8;
73973;PMS5003;62336;-26.094;27.994;2023-03-19T12:40:48;10;9;
73973;PMS5003;62336;-26.094;27.994;2023-03-19T12:43:13;9;9;
73973;PMS5003;62336;-26.094;27.994;2023-03-19T12:45:36;7;6;
73973;PMS5003;62336;-26.094;27.994;2023-03-19T12:48:02;9;8;
73973;PMS5003;62336;-26.094;27.994;2023-03-19T12:50:26;8;8;
73973;PMS5003;62336;-26.094;27.994;2023-03-19T12:52:50;7;7;
73973;PMS5003;62336;-26.094;27.994;2023-03-19T12:55:16;8;7;
73973;PMS5003;62336;-26.094;27.994;2023-03-19T12:57:41;7;7;
73973;PMS5003;62336;-26.094;27.994;2023-03-19T13:00:08;8;8;
73973;PMS5003;62336;-26.094;27.994;2023-03-19T13:02:32;8;7;
73973;PMS5003;62336;-26.094;27.994;2023-03-19T13:04:58;10;9;
73973;PMS5003;62336;-26.094;27.994;2023-03-19T13:07:23;8;7;
73973;PMS5003;62336;-26.094;27.994;2023-03-19T13:09:48;6;6;
73973;PMS5003;62336;-26.094;27.994;2023-03-19T13:12:12;7;7;
73973;PMS5003;62336;-26.094;27.994;2023-03-19T13:14:41;8;6;
73973;PMS5003;62336;-26.094;27.994;2023-03-19T13:17:04;9;7;
73973;PMS5003;62336;-26.094;27.994;2023-03-19T13:19:28;6;6;
73973;PMS5003;62336;-26.094;27.994;2023-03-19T13:21:53;6;6;
73973;PMS5003;62336;-26.094;27.994;2023-03-19T13:24:19;6;6;
73973;PMS5003;62336;-26.094;27.994;2023-03-19T13:26:43;7;5;
73973;PMS5003;62336;-26.094;27.994;2023-03-19T13:29:08;7;7;
73973;PMS5003;62336;-26.094;27.994;2023-03-19T13:31:33;5;5;
73973;PMS5003;62336;-26.094;27.994;2023-03-19T13:34:01;7;7;
73973;PMS5003;62336;-26.094;27.994;2023-03-19T13:36:26;5;4;
73973;PMS5003;62336;-26.094;27.994;2023-03-19T13:38:49;7;7;
73973;PMS5003;62336;-26.094;27.994;2023-03-19T13:43:40;7;6;
73973;PMS5003;62336;-26.094;27.994;2023-03-19T13:46:10;5;4;
73973;PMS5003;62336;-26.094;27.994;2023-03-19T13:48:34;6;6;
73973;PMS5003;62336;-26.094;27.994;2023-03-19T13:50:54;5;5;
73973;PMS5003;62336;-26.094;27.994;2023-03-19T13:53:21;3;3;
73973;PMS5003;62336;-26.094;27.994;2023-03-19T13:55:45;5;5;
73973;PMS5003;62336;-26.094;27.994;2023-03-19T13:58:13;5;5;
73973;PMS5003;62336;-26.094;27.994;2023-03-19T14:02:59;6;5;
73973;PMS5003;62336;-26.094;27.994;2023-03-19T14:05:31;7;7;
73973;PMS5003;62336;-26.094;27.994;2023-03-19T14:07:51;5;5;
73973;PMS5003;62336;-26.094;27.994;2023-03-19T14:10:16;4;4;
73973;PMS5003;62336;-26.094;27.994;2023-03-19T14:12:40;8;8;
73973;PMS5003;62336;-26.094;27.994;2023-03-19T14:17:30;9;8;
73973;PMS5003;62336;-26.094;27.994;2023-03-19T14:19:55;7;6;
73973;PMS5003;62336;-26.094;27.994;2023-03-19T14:22:22;8;7;
73973;PMS5003;62336;-26.094;27.994;2023-03-19T14:27:12;8;7;
73973;PMS5003;62336;-26.094;27.994;2023-03-19T14:29:35;6;6;
73973;PMS5003;62336;-26.094;27.994;2023-03-19T14:32:05;6;6;
73973;PMS5003;62336;-26.094;27.994;2023-03-19T14:34:28;5;5;
73973;PMS5003;62336;-26.094;27.994;2023-03-19T14:36:55;6;6;
73973;PMS5003;62336;-26.094;27.994;2023-03-19T14:39:18;6;5;
73973;PMS5003;62336;-26.094;27.994;2023-03-19T14:41:42;6;6;
73973;PMS5003;62336;-26.094;27.994;2023-03-19T14:44:12;7;7;
73973;PMS5003;62336;-26.094;27.994;2023-03-19T14:46:32;6;6;
73973;PMS5003;62336;-26.094;27.994;2023-03-19T14:51:31;8;7;
73973;PMS5003;62336;-26.094;27.994;2023-03-19T14:53:48;6;6;
73973;PMS5003;62336;-26.094;27.994;2023-03-19T14:56:13;6;5;
73973;PMS5003;62336;-26.094;27.994;2023-03-19T14:58:37;7;6;
73973;PMS5003;62336;-26.094;27.994;2023-03-19T15:01:04;8;7;
73973;PMS5003;62336;-26.094;27.994;2023-03-19T15:03:29;6;6;
73973;PMS5003;62336;-26.094;27.994;2023-03-19T15:05:55;6;6;
73973;PMS5003;62336;-26.094;27.994;2023-03-19T15:08:19;7;7;
73973;PMS5003;62336;-26.094;27.994;2023-03-19T15:10:46;8;8;
73973;PMS5003;62336;-26.094;27.994;2023-03-19T15:13:15;11;10;
73973;PMS5003;62336;-26.094;27.994;2023-03-19T15:15:36;8;8;
73973;PMS5003;62336;-26.094;27.994;2023-03-19T15:17:59;7;7;
73973;PMS5003;62336;-26.094;27.994;2023-03-19T15:20:23;9;9;
73973;PMS5003;62336;-26.094;27.994;2023-03-19T15:22:52;7;7;
73973;PMS5003;62336;-26.094;27.994;2023-03-19T15:25:13;6;5;
73973;PMS5003;62336;-26.094;27.994;2023-03-19T15:27:38;7;7;
73973;PMS5003;62336;-26.094;27.994;2023-03-19T15:30:08;8;8;
73973;PMS5003;62336;-26.094;27.994;2023-03-19T15:32:30;10;9;
73973;PMS5003;62336;-26.094;27.994;2023-03-19T15:34:55;8;7;
73973;PMS5003;62336;-26.094;27.994;2023-03-19T15:37:18;9;8;
73973;PMS5003;62336;-26.094;27.994;2023-03-19T15:39:44;11;11;
73973;PMS5003;62336;-26.094;27.994;2023-03-19T15:42:08;11;10;
73973;PMS5003;62336;-26.094;27.994;2023-03-19T15:44:34;12;12;
73973;PMS5003;62336;-26.094;27.994;2023-03-19T15:46:59;9;9;
73973;PMS5003;62336;-26.094;27.994;2023-03-19T15:49:25;11;11;
73973;PMS5003;62336;-26.094;27.994;2023-03-19T15:51:49;10;10;
73973;PMS5003;62336;-26.094;27.994;2023-03-19T15:54:13;10;10;
73973;PMS5003;62336;-26.094;27.994;2023-03-19T15:56:40;11;11;
73973;PMS5003;62336;-26.094;27.994;2023-03-19T15:59:06;11;11;